Ride Results

Moyston CFA Sunday (26-08-2012)
Ride distance: 80.0 km

Outcomes - Moyston CFA Sunday (26-08-2012)
Division No. of Entries Retired / DNE Completed Withdrawn Ineligible V/O Percentage Completed
HW 5 - 5 - - - 100.00%
MW 11 - 7 3 - 1 63.64%
LW 12 - 11 - - 1 91.67%
JN 4 - 3 - - 1 75.00%
Totals 32 - 26 3 - 3 81.25%
Results - Moyston CFA Sunday (26-08-2012)
No. Rider Horse Place Time Leg Speeds Total
Km/Hr
H/R bpm
Heavyweight
308 Melissa Cawthan Taylorsglen Renegade 1 (BC) 5:15:00 17.3, 13.5 15.24 34, 46, 46 (Avg:46)
82 Jarrod Robinson Lambruk Park Zelida 2 6:23:00 13.0, 12.0 12.53 38, 48, 49 (Avg:48)
115 Rod Mills Musical Gully Zanadu 3 6:32:00 12.6, 11.8 12.24 36, 36, 40 (Avg:38)
34 Amanda Bengtsson Shakanda Samir 4 6:35:00 12.9, 11.4 12.15 37, 47, 49 (Avg:48)
751 Tim Wall Musical Gully Samba 5 6:54:00 13.2, 10.3 11.59 34, 46, 47 (Avg:46)
Middleweight
141 Jackie Drayton Clovelly Park Shandara 1 (BC) 4:35:00 18.0, 16.9 17.45 28, 46, 48 (Avg:47)
24 Rachael Laidlaw Bushies Luthien 2 5:04:00 17.9, 14.1 15.79 27, 38, 46 (Avg:42)
175 Dianne Leehane Tarara Malone 3 5:42:00 14.9, 13.1 14.04 30, 41, 44 (Avg:42)
757 Paul Bryson Pterion Rose 4 6:08:00 12.9, 13.1 13.04 37, 43, 46 (Avg:44)
173 Robyn Albers Tubbarubba Phoenix 5 6:21:00 13.2, 11.9 12.60 38, 50, 57 (Avg:53)
172 Michael Cadman A'landell Kwaint 5 6:21:00 13.2, 11.9 12.60 37, 41, 45 (Avg:43)
351 Steve Blackhurst Weerina Arabian Princess 7 6:51:00 13.2, 10.4 11.68 32, 36, 38 (Avg:37)
42 Hans Peuker Marybank Celia Withdrawn L2 0:00:00 - - 28, 40, 43 (Avg:41)
53 Beverley Rayner-Mason Ainslie Ribbon Lame L2 0:00:00 17.9, 14.1 - 34, 47, 50 (Avg:48)
189 Sally Cowan Waitara Sun Sun Withdrawn P/R 0:00:00 - - 46
77 Trish Reeves Timbertop Arion Withdrawn P/R 0:00:00 - - 31
Lightweight
208 Janeen Smith Pterion Leonardo 1 (BC) 5:15:00 17.3, 13.5 15.24 32, 42, 45 (Avg:43)
22 Sarah McLaughlin Tonki Dee Boo Frankly 2 5:44:00 14.4, 13.4 13.95 30, 44, 44 (Avg:44)
183 Nicky Robinson Sterling Soldier 2 5:44:00 14.4, 13.4 13.95 35, 48, 42 (Avg:45)
740 Melinda Stevens Shuja Bint Melika 4 6:07:00 13.0, 13.1 13.08 36, 40, 47 (Avg:43)
743 Marty Bryson Quintally Merlin 5 6:08:00 12.9, 13.1 13.04 32, 42, 44 (Avg:43)
742 Jamie Gardner Rivergum Delight 6 6:21:00 13.2, 11.9 12.60 32, 40, 44 (Avg:42)
113 Lisa Worden Clarendon Raziah 6 6:21:00 13.2, 11.9 12.60 30, 40, 42 (Avg:41)
91 Kim Noble Kurrajong Blade 8 6:23:00 13.1, 11.9 12.53 36, 44, 46 (Avg:45)
61 Lois Sharam Musical Gully Carousel 9 6:32:00 12.6, 11.8 12.24 31, 42, 42 (Avg:42)
161 Shannon Decker Rocky Point Blue Kyanite 10 6:57:00 12.4, 10.6 11.51 32, 42, 43 (Avg:42)
114 Helen Spencer Imoan Party Girl 10 6:57:00 12.4, 10.6 11.51 40, 40, 42 (Avg:41)
11 Rohan Stanes Flying Circus Ring Master Metabolics severe L2 0:00:00 13.0, 13.1 - 36, 44, 37 (Avg:40)
Junior
225 Harrison Berg Mahazin Bronze Azar 1 (BC) 6:31:00 12.6, 11.8 12.28 34, 41, 48 (Avg:44)
748 Lucy Mills Billie 1 6:31:00 12.6, 11.8 12.28 36, 42, 56 (Avg:49)
14 Katrina Griggs Sandine Jazira 3 6:35:00 12.9, 11.4 12.15 35, 46, 48 (Avg:47)
90 Samantha Noble Springridge Bungendore Lame L1 0:00:00 13.6 - 26, 41 (Avg:41)